Terminal Aerodrome Forecast
Issued by NWS Sterling, VA

Current Version | Previous Version | Graphics & Text | Print | Product List | Glossary On
Versions: 1 2 3 4 5 6 7 8 9 10 11 12 13 14 15 16 17 18 19 20 21 22 23 24
402
FTUS41 KLWX 181509 AAB
TAFDCA
TAF AMD
KDCA 181509Z 1815/1918 07011KT 2SM RA OVC008
      TEMPO 1815/1817 1 1/2SM +RA
     FM181700 07011G18KT 2SM SHRA OVC008
     FM190000 08009KT 2SM -SHRA BR OVC008
     FM191400 14008KT 5SM -SHRA BKN015 OVC050=

USA.gov is the U.S. government's official web portal to all federal, state and local government web resources and services.